首页
METAR-TAF:

METAR-TAF

机场 :

伊斯坦堡新機場

伊斯坦堡, 土耳其

纬度: 41-16-31N, 经度: 028-45-07E, 海拔: 99米

当前天气观测

该预报发布于21分钟前的18:20 UTC
风速20节,风向东北
温度 26°C
湿度 84%
气压 1018 hPa
能见度10公里或以上
散云层高于2500英尺

METAR: LTFM 261820Z 05020KT 9999 SCT025 26/23 Q1018 NOSIG RMK RWY17L 05018KT RWY34L 04016KT RWY16R 05018KT

时间: 21:41 (18:41 UTC)

预报

该预报发布于2小时和1分钟前的16:40 UTC
预报有效从26日的 18点(UTC)到 27日的 24点(UTC)
风速15节,风向北转东北
能见度10公里或以上
散云层高于3000英尺
成为
从 26日的 20点(UTC)到 26日的 23点(UTC)
能见度10公里或以上
1500米以下无云,无积雨云
成为
从 27日的 04点(UTC)到 27日的 07点(UTC)
散云层高于4000英尺
成为
从 27日的 10点(UTC)到 27日的 13点(UTC)
能见度10公里或以上
1500米以下无云,无积雨云
成为
从 27日的 17点(UTC)到 27日的 20点(UTC)
风速2节,风向多变

TAF: LTFM 261640Z 2618/2724 03015KT 9999 SCT030 BECMG 2620/2623 CAVOK BECMG 2704/2707 SCT040 BECMG 2710/2713 CAVOK BECMG 2717/2720 VRB02KT

超过4000个机场的气象观测和天气预报(METAR&TAF报告)。

可查询的气象台以黄色和红色小点在地图上表示。

将鼠标移到小点上方,可查看气象台名称。

然后点击查看天气观测和预报。

如需切换地图:点击带黑十字的绿色按钮放大地图;点击带横线的绿色按钮缩小地图;或者点击绿色箭头查看邻近地区的地图。


METAR-TAF: